Instant Aviation Weather Anywhere

How would like you like to get weather information like this…

EGOV 250950Z 17014KT 9999 FEW017 SCT170 BKN250 16/11 Q1004 BLU NOSIG TAF EGOV 250736Z 2509/2518 17012KT 9999 FEW022 PROB30 TEMPO 2514/2517 7000 -RA BECMG 2516/2518 BKN018

or

European Radar

or

gramet

…instantly on any device?

With one free app and another free […]

To Annemasse with Jane

Flying from Fairoaks EGTF to Annemasse LFLI in the Bonanza. Includes some VFR flying in the Portes du Soleil ski area in France (Morzine, St Jean d’Aulps, Grande Terche).

More Bonanza stuff at GZLOJ.net

Day Trip to Deauville

For lunch…

[…]

Flying to the Alps

April 2015: flying from Fairoaks to Friedrichshafen EDNY for Aero Expo and on to Annemasse LFLI.

IV Sqn Logo on G-ZLOJ Tail

IV Sqn RAF

[…]

2014 Best of Video

Aspen Installed

New Panel

Aspen 1000 Pro

There’s a little tidying up to do, but it’s pretty much complete!

More photos at gzloj.net

Remote Pilot Qualification

RPQ-S Training

I’ve just completed the Remote Pilot Qualification – Small Unmanned Aircraft (RPQ-S) training and check flight. I am now available for professional flying and photography with my DJI Phantom 2 Vision+ with my colleagues in Aerial Ace Photography.

Air to Air

A36 Air to Air

In formation with a Stearman at the Virgin Atlantic Fly-In at Compton Abbas in September.

More photos on my A36 blog.

Gliding at Lasham

[Show slideshow]